Time;durP1;ratioP1;P1;durP2;ratioP2;P2;SDS_P1;SDS_P2;PMS_P1;PMS_P2;Temp;Humidity;BMP_temperature;BMP_pressure;BME280_temperature;BME280_humidity;BME280_pressure;Samples;Min_cycle;Max_cycle;Signal;HPM_P1;HPM_P2
2022/01/22 00:00:50;;;;;;;20.07;6.20;;;;;;;-3.70;80.55;99792.63;4238111;28;20646;-66
2022/01/22 00:03:17;;;;;;;25.57;7.67;;;;;;;-3.79;81.26;99799.97;4269899;28;20283;-68
2022/01/22 00:05:44;;;;;;;21.10;7.00;;;;;;;-3.78;82.19;99801.66;4246055;28;20376;-65
2022/01/22 00:08:11;;;;;;;15.73;5.40;;;;;;;-3.80;82.88;99799.13;4240575;28;24265;-67
2022/01/22 00:10:41;;;;;;;15.80;5.33;;;;;;;-3.98;84.68;99794.75;4235121;28;20881;-66
2022/01/22 00:14:23;;;;;;;14.37;5.43;;;;;;;-3.89;84.90;99796.94;4287059;28;20237;-66
2022/01/22 00:15:55;;;;;;;18.77;4.73;;;;;;;-3.88;84.76;99790.84;4238732;28;20229;-64
2022/01/22 00:18:22;;;;;;;12.47;4.13;;;;;;;-3.97;86.27;99786.06;4238828;28;20298;-66
2022/01/22 00:20:48;;;;;;;12.97;4.47;;;;;;;-3.98;86.52;99790.44;4223807;28;23119;-65
2022/01/22 00:23:16;;;;;;;13.90;4.93;;;;;;;-3.96;86.81;99788.56;4238630;28;23053;-66
2022/01/22 00:25:42;;;;;;;15.17;4.67;;;;;;;-3.94;87.65;99791.94;4244792;28;20435;-67
2022/01/22 00:28:09;;;;;;;12.53;4.77;;;;;;;-4.06;88.87;99789.91;4245468;28;21192;-63
2022/01/22 00:30:35;;;;;;;10.83;4.20;;;;;;;-4.06;89.54;99792.50;4252850;28;22363;-65
2022/01/22 00:33:02;;;;;;;14.67;4.60;;;;;;;-3.98;89.50;99800.81;4240175;28;20343;-65
2022/01/22 00:35:29;;;;;;;13.00;4.80;;;;;;;-3.96;89.80;99800.72;4238557;28;20234;-67
2022/01/22 00:37:55;;;;;;;10.00;3.93;;;;;;;-4.00;90.22;99788.78;4236969;28;21773;-66
2022/01/22 00:40:22;;;;;;;14.03;3.83;;;;;;;-4.01;90.38;99793.16;4256173;28;20268;-66
2022/01/22 00:42:49;;;;;;;10.43;4.20;;;;;;;-3.97;90.34;99789.50;4257257;28;21172;-67
2022/01/22 00:45:17;;;;;;;9.60;3.80;;;;;;;-3.99;90.93;99795.69;4243029;28;20237;-67
2022/01/22 00:47:43;;;;;;;16.70;4.67;;;;;;;-4.05;91.39;99794.19;4243542;28;20236;-68
2022/01/22 00:50:12;;;;;;;9.70;4.47;;;;;;;-4.07;91.76;99791.69;4237882;28;20233;-66
2022/01/22 00:52:40;;;;;;;14.33;5.23;;;;;;;-3.96;91.59;99792.94;4227375;28;22727;-67
2022/01/22 00:55:07;;;;;;;16.83;5.30;;;;;;;-4.08;92.05;99805.56;4237090;28;20705;-63
2022/01/22 00:57:34;;;;;;;13.53;5.17;;;;;;;-3.99;92.18;99806.91;4225794;28;20701;-64
2022/01/22 01:00:03;;;;;;;13.20;4.43;;;;;;;-4.08;92.39;99804.72;4258494;28;20264;-64
2022/01/22 01:02:30;;;;;;;13.73;4.60;;;;;;;-4.17;92.72;99795.56;4241364;28;21482;-64
2022/01/22 01:04:58;;;;;;;14.70;5.13;;;;;;;-4.18;93.03;99799.09;4233158;28;20287;-65
2022/01/22 01:07:24;;;;;;;14.90;4.77;;;;;;;-4.09;93.35;99803.06;4259052;28;23545;-68
2022/01/22 01:09:51;;;;;;;17.30;5.10;;;;;;;-4.08;93.13;99804.72;4242011;28;20981;-68
2022/01/22 01:12:17;;;;;;;12.77;5.60;;;;;;;-4.14;92.94;99794.63;4245445;28;20300;-67
2022/01/22 01:14:55;;;;;;;17.53;5.40;;;;;;;-4.13;93.43;99793.69;4240789;28;20230;-65
2022/01/22 01:17:57;;;;;;;13.27;5.47;;;;;;;-4.04;93.30;99790.69;4236315;28;21622;-66
2022/01/22 01:34:16;;;;;;;15.73;5.67;;;;;;;-4.25;95.43;99775.13;4236688;28;20786;-66
2022/01/22 01:36:43;;;;;;;17.30;5.53;;;;;;;-4.19;95.11;99773.19;4228863;28;21761;-65
2022/01/22 01:39:13;;;;;;;16.10;6.37;;;;;;;-4.24;95.59;99768.19;4233510;28;20242;-67
2022/01/22 01:44:09;;;;;;;16.13;6.07;;;;;;;-4.33;96.44;99779.84;4231104;28;20230;-66
2022/01/22 01:46:43;;;;;;;11.73;4.97;;;;;;;-4.37;96.30;99780.88;4247018;28;20240;-67
2022/01/22 01:49:10;;;;;;;16.30;5.93;;;;;;;-4.50;97.09;99769.31;4259583;28;20228;-66
2022/01/22 01:51:37;;;;;;;16.77;5.70;;;;;;;-4.43;97.06;99769.91;4255267;28;20368;-65
2022/01/22 01:59:41;;;;;;;18.20;5.57;;;;;;;-4.43;97.91;99775.09;4253320;28;20222;-65
2022/01/22 02:02:08;;;;;;;16.33;5.87;;;;;;;-4.49;97.95;99782.25;4219233;28;21812;-66
2022/01/22 02:04:35;;;;;;;16.07;5.13;;;;;;;-4.49;98.06;99777.06;4223968;28;20227;-64
2022/01/22 02:07:01;;;;;;;15.40;5.10;;;;;;;-4.41;98.02;99787.09;4236463;28;20301;-68
2022/01/22 02:09:28;;;;;;;14.33;4.87;;;;;;;-4.46;97.93;99786.47;4237788;28;20225;-65
2022/01/22 02:12:06;;;;;;;15.53;5.00;;;;;;;-4.40;98.16;99778.44;4254628;28;20242;-64
2022/01/22 02:25:23;;;;;;;14.93;5.10;;;;;;;-4.30;97.48;99766.72;4248267;28;21600;-64
2022/01/22 02:27:49;;;;;;;17.23;5.10;;;;;;;-4.39;97.40;99769.72;4248412;28;23796;-66
2022/01/22 02:30:22;;;;;;;15.97;4.73;;;;;;;-4.31;97.70;99762.44;4246880;28;25419;-66
2022/01/22 02:33:15;;;;;;;12.97;4.70;;;;;;;-4.36;97.33;99764.38;4248461;28;20655;-66
2022/01/22 02:35:49;;;;;;;11.60;4.00;;;;;;;-4.36;97.25;99753.16;4236080;28;21255;-65
2022/01/22 02:38:23;;;;;;;16.67;4.67;;;;;;;-4.28;96.82;99759.69;4246117;28;20640;-66
2022/01/22 02:40:50;;;;;;;15.90;4.07;;;;;;;-4.31;96.86;99756.38;4271487;28;20234;-66
2022/01/22 02:43:17;;;;;;;13.07;4.00;;;;;;;-4.29;96.71;99758.00;4240268;28;20296;-66
2022/01/22 02:45:45;;;;;;;11.03;4.40;;;;;;;-4.19;96.45;99771.44;4237068;28;20290;-68
2022/01/22 02:48:12;;;;;;;10.97;3.80;;;;;;;-4.14;95.73;99769.47;4266709;28;21262;-65
2022/01/22 02:50:38;;;;;;;13.13;3.80;;;;;;;-4.15;95.11;99766.94;4240078;28;20331;-65
2022/01/22 02:53:10;;;;;;;13.50;3.93;;;;;;;-4.13;95.07;99767.72;4246237;28;21219;-68
2022/01/22 02:55:37;;;;;;;10.93;3.73;;;;;;;-4.10;95.24;99764.97;4228861;28;20392;-68
2022/01/22 02:58:03;;;;;;;12.43;3.33;;;;;;;-4.11;94.80;99769.34;4237927;28;20231;-67
2022/01/22 03:00:31;;;;;;;12.93;3.47;;;;;;;-4.09;94.75;99766.69;4242179;28;20302;-67
2022/01/22 03:02:58;;;;;;;16.03;3.70;;;;;;;-4.06;94.42;99766.53;4246585;28;20264;-66
2022/01/22 03:05:24;;;;;;;11.73;3.63;;;;;;;-4.09;94.61;99762.31;4244357;28;21323;-65
2022/01/22 03:07:54;;;;;;;12.47;3.67;;;;;;;-4.05;93.97;99773.41;4241267;28;20647;-65
2022/01/22 03:10:23;;;;;;;10.33;3.13;;;;;;;-4.00;94.12;99791.38;4250603;28;20867;-66
2022/01/22 03:18:13;;;;;;;10.10;3.23;;;;;;;-3.97;92.49;99778.28;4239576;28;20238;-67
2022/01/22 03:27:13;;;;;;;11.23;3.50;;;;;;;-3.89;92.03;99779.59;4262502;28;20242;-67
2022/01/22 03:28:53;;;;;;;8.17;3.30;;;;;;;-3.89;91.59;99787.38;4241993;28;21832;-67
2022/01/22 03:31:20;;;;;;;13.33;3.80;;;;;;;-3.91;91.36;99786.63;4245567;28;20281;-65
2022/01/22 03:33:46;;;;;;;14.77;3.33;;;;;;;-3.89;91.30;99795.19;4238669;28;20327;-66
2022/01/22 03:36:14;;;;;;;9.43;3.40;;;;;;;-3.87;91.24;99793.38;4238541;28;20299;-67
2022/01/22 03:38:41;;;;;;;8.73;2.93;;;;;;;-3.87;90.86;99779.53;4248727;28;21336;-69
2022/01/22 03:41:09;;;;;;;12.37;2.63;;;;;;;-3.79;90.15;99792.16;4239119;28;20713;-66
2022/01/22 03:43:38;;;;;;;11.20;2.83;;;;;;;-3.75;89.95;99789.34;4239470;28;21226;-67
2022/01/22 03:46:05;;;;;;;10.93;3.33;;;;;;;-3.83;89.79;99786.28;4236653;28;21289;-68
2022/01/22 03:48:34;;;;;;;10.10;3.00;;;;;;;-3.76;89.78;99800.69;4244166;28;20814;-67
2022/01/22 03:51:00;;;;;;;8.67;2.60;;;;;;;-3.71;89.29;99792.66;4242796;28;20269;-64
2022/01/22 03:53:27;;;;;;;7.87;2.50;;;;;;;-3.73;88.98;99797.09;4236026;28;20549;-65
2022/01/22 03:56:04;;;;;;;11.13;2.97;;;;;;;-3.71;89.29;99803.91;4255827;28;20229;-65
2022/01/22 03:58:34;;;;;;;16.80;3.17;;;;;;;-3.58;88.39;99808.53;4250191;28;20269;-65
2022/01/22 04:01:53;;;;;;;15.03;3.73;;;;;;;-3.53;88.29;99799.63;4242957;28;20243;-68
2022/01/22 04:07:18;;;;;;;10.80;2.77;;;;;;;-3.64;88.45;99809.69;4212127;28;20305;-65
2022/01/22 04:09:38;;;;;;;9.80;2.57;;;;;;;-3.53;87.73;99794.44;4321244;28;20294;-63
2022/01/22 04:12:05;;;;;;;8.37;2.93;;;;;;;-3.60;87.62;99808.63;4253942;28;20302;-66
2022/01/22 04:14:35;;;;;;;9.27;2.87;;;;;;;-3.57;88.09;99807.63;4246684;28;20317;-63
2022/01/22 04:17:22;;;;;;;11.80;3.40;;;;;;;-3.56;87.64;99804.09;4245272;28;20260;-68
2022/01/22 04:24:50;;;;;;;12.00;3.40;;;;;;;-3.63;87.08;99806.16;4244472;28;20309;-67
2022/01/22 04:25:34;;;;;;;8.43;2.63;;;;;;;-3.67;87.79;99812.44;4252949;28;20335;-64
2022/01/22 04:28:00;;;;;;;11.20;3.00;;;;;;;-3.56;87.55;99814.50;4258706;28;20244;-65
2022/01/22 04:30:30;;;;;;;7.90;2.93;;;;;;;-3.54;87.32;99823.09;4241060;28;20500;-65
2022/01/22 04:32:56;;;;;;;14.07;3.10;;;;;;;-3.53;87.48;99823.03;4239907;28;22232;-66
2022/01/22 04:35:23;;;;;;;9.93;3.77;;;;;;;-3.61;87.66;99820.78;4259014;28;20365;-67
2022/01/22 04:37:50;;;;;;;11.93;2.90;;;;;;;-3.62;87.55;99833.84;4234240;28;20288;-64
2022/01/22 04:40:16;;;;;;;10.83;2.97;;;;;;;-3.69;87.64;99833.28;4235642;28;22106;-65
2022/01/22 04:42:43;;;;;;;9.60;2.73;;;;;;;-3.70;87.79;99841.16;4241751;28;20930;-65
2022/01/22 04:45:23;;;;;;;11.67;3.20;;;;;;;-3.73;87.91;99841.28;4242641;28;20237;-66
2022/01/22 04:47:58;;;;;;;8.73;3.03;;;;;;;-3.67;87.81;99847.06;4239236;28;20229;-67
2022/01/22 04:55:37;;;;;;;12.80;3.20;;;;;;;-3.75;87.79;99856.94;4240670;28;22290;-69
2022/01/22 04:58:04;;;;;;;11.30;3.20;;;;;;;-3.74;87.85;99868.22;4244961;28;20401;-66
2022/01/22 05:00:33;;;;;;;12.07;3.67;;;;;;;-3.67;87.33;99867.03;4268594;28;20227;-66
2022/01/22 05:03:01;;;;;;;9.37;3.27;;;;;;;-3.64;87.31;99866.88;4229752;28;20236;-66
2022/01/22 05:05:28;;;;;;;15.70;3.03;;;;;;;-3.64;87.67;99864.28;4239808;28;21339;-65
2022/01/22 05:07:55;;;;;;;7.50;2.90;;;;;;;-3.61;87.64;99859.78;4247677;28;20245;-66
2022/01/22 05:10:22;;;;;;;10.53;3.20;;;;;;;-3.52;87.25;99866.31;4239011;28;21394;-66
2022/01/22 05:12:49;;;;;;;10.03;3.00;;;;;;;-3.52;86.93;99861.13;4272698;28;23629;-66
2022/01/22 05:15:17;;;;;;;12.67;2.90;;;;;;;-3.62;86.87;99854.66;4239532;28;20226;-65
2022/01/22 05:17:44;;;;;;;9.87;2.83;;;;;;;-3.65;87.99;99860.84;4262171;28;26384;-67
2022/01/22 05:20:29;;;;;;;10.20;2.90;;;;;;;-3.55;87.41;99870.81;4251552;28;20238;-65
2022/01/22 05:23:12;;;;;;;10.00;2.67;;;;;;;-3.66;87.38;99868.69;4243898;28;20258;-66
2022/01/22 05:25:44;;;;;;;13.03;2.90;;;;;;;-3.73;87.66;99873.31;4236196;28;20235;-67
2022/01/22 05:37:04;;;;;;;10.23;2.60;;;;;;;-3.61;88.26;99877.13;4249364;28;20352;-64
2022/01/22 05:39:32;;;;;;;9.50;2.63;;;;;;;-3.49;87.21;99888.72;4245427;28;20233;-66
2022/01/22 05:42:00;;;;;;;7.97;2.23;;;;;;;-3.45;87.19;99887.69;4243838;28;21491;-66
2022/01/22 05:44:28;;;;;;;9.60;2.47;;;;;;;-3.45;86.65;99888.53;4225823;28;20230;-66
2022/01/22 05:46:57;;;;;;;8.17;2.70;;;;;;;-3.44;87.00;99892.84;4238070;28;21280;-66
2022/01/22 05:49:26;;;;;;;11.80;3.10;;;;;;;-3.41;86.11;99895.28;4244688;28;26153;-65
2022/01/22 05:51:55;;;;;;;8.60;2.70;;;;;;;-3.42;86.04;99901.41;4238140;28;20237;-66
2022/01/22 05:59:41;;;;;;;8.50;2.47;;;;;;;-3.21;85.86;99914.31;4243446;28;20230;-64
2022/01/22 06:02:12;;;;;;;6.63;2.37;;;;;;;-3.30;86.37;99917.34;4243734;28;20330;-65
2022/01/22 06:04:40;;;;;;;10.77;2.80;;;;;;;-3.17;86.89;99923.69;4244531;28;20225;-64
2022/01/22 06:07:08;;;;;;;11.37;2.47;;;;;;;-3.16;86.09;99929.72;4241911;28;20340;-64
2022/01/22 06:09:38;;;;;;;13.93;2.80;;;;;;;-3.14;86.77;99933.09;4226164;28;23369;-66
2022/01/22 06:14:38;;;;;;;11.93;2.13;;;;;;;-2.99;85.87;99946.25;4959896;28;20235;-63
2022/01/22 06:17:04;;;;;;;7.93;1.90;;;;;;;-2.99;85.51;99946.25;4972002;28;20333;-64
2022/01/22 06:19:31;;;;;;;6.23;2.33;;;;;;;-2.99;85.89;99948.88;4990342;28;20254;-63
2022/01/22 06:21:58;;;;;;;11.07;1.67;;;;;;;-3.00;85.17;99946.31;4990106;28;20658;-64
2022/01/22 06:24:25;;;;;;;8.93;2.23;;;;;;;-2.95;85.29;99959.13;4989334;28;20235;-63
2022/01/22 06:26:57;;;;;;;8.13;2.27;;;;;;;-2.88;85.19;99960.53;4990110;28;20259;-65
2022/01/22 06:29:23;;;;;;;9.50;2.37;;;;;;;-2.84;83.89;99960.31;4989062;28;20230;-65
2022/01/22 06:31:50;;;;;;;8.63;1.93;;;;;;;-2.82;84.28;99957.66;4990369;28;20224;-64
2022/01/22 06:34:17;;;;;;;6.23;2.33;;;;;;;-2.83;83.88;99951.59;4990688;28;21113;-66
2022/01/22 06:36:43;;;;;;;6.43;2.13;;;;;;;-2.79;83.79;99949.69;4991862;28;20223;-63
2022/01/22 06:39:14;;;;;;;9.50;2.13;;;;;;;-2.80;83.84;99951.44;4990947;28;20328;-62
2022/01/22 06:41:44;;;;;;;7.83;2.10;;;;;;;-2.71;83.80;99970.19;4982442;28;20233;-64
2022/01/22 06:44:19;;;;;;;7.50;2.40;;;;;;;-2.66;83.82;99983.81;4990063;28;20243;-65
2022/01/22 06:46:52;;;;;;;8.53;2.83;;;;;;;-2.65;84.41;99983.72;4989208;28;20223;-63
2022/01/22 06:49:19;;;;;;;8.43;2.07;;;;;;;-2.62;84.05;99981.00;4989170;28;20219;-63
2022/01/22 06:51:45;;;;;;;8.03;2.30;;;;;;;-2.60;84.29;99988.72;4988598;28;20786;-62
2022/01/22 06:54:13;;;;;;;12.47;2.60;;;;;;;-2.57;84.19;99991.19;4974531;28;20237;-62
2022/01/22 06:56:40;;;;;;;11.30;2.00;;;;;;;-2.58;84.56;99987.72;4986988;28;20223;-64
2022/01/22 06:59:11;;;;;;;6.77;2.03;;;;;;;-2.53;84.64;99990.13;4989491;28;20218;-64
2022/01/22 07:01:38;;;;;;;8.70;2.27;;;;;;;-2.53;84.01;99990.13;4976877;28;20561;-65
2022/01/22 07:04:06;;;;;;;6.53;2.33;;;;;;;-2.51;83.98;99996.09;4989484;28;20326;-63
2022/01/22 07:06:33;;;;;;;7.20;2.10;;;;;;;-2.50;84.45;99994.38;4973866;28;20317;-63
2022/01/22 07:08:59;;;;;;;9.80;2.40;;;;;;;-2.53;84.43;99999.69;4977102;28;20233;-65
2022/01/22 07:11:26;;;;;;;15.10;2.60;;;;;;;-2.47;84.70;99997.66;4952154;28;20222;-64
2022/01/22 07:13:52;;;;;;;7.70;2.10;;;;;;;-2.43;84.32;100006.19;4962370;28;20600;-64
2022/01/22 07:16:19;;;;;;;7.60;2.20;;;;;;;-2.43;84.27;100011.38;4955951;28;20231;-65
2022/01/22 07:18:46;;;;;;;8.47;2.23;;;;;;;-2.39;84.34;100020.72;4976812;28;20235;-64
2022/01/22 07:21:19;;;;;;;10.13;2.40;;;;;;;-2.33;84.00;100020.44;4976531;28;20442;-64
2022/01/22 07:26:16;;;;;;;12.57;2.70;;;;;;;-2.22;84.34;100012.13;4967151;28;20226;-63
2022/01/22 07:28:42;;;;;;;8.33;2.17;;;;;;;-2.20;83.52;100012.88;4959225;28;20305;-64
2022/01/22 07:31:10;;;;;;;10.67;2.53;;;;;;;-2.16;83.96;100017.84;4978993;28;20240;-65
2022/01/22 07:33:38;;;;;;;7.80;2.57;;;;;;;-2.25;83.79;100023.50;4953999;28;20228;-65
2022/01/22 07:36:05;;;;;;;10.20;2.70;;;;;;;-2.21;83.76;100027.66;4977800;28;20233;-62
2022/01/22 07:38:37;;;;;;;11.03;2.60;;;;;;;-2.17;84.35;100031.81;4976841;28;20810;-63
2022/01/22 07:41:08;;;;;;;13.03;2.67;;;;;;;-2.15;84.07;100037.81;4956169;28;20702;-65
2022/01/22 07:43:36;;;;;;;8.77;2.50;;;;;;;-2.17;84.13;100041.41;4979101;28;20246;-63
2022/01/22 07:46:05;;;;;;;9.73;2.60;;;;;;;-2.21;84.26;100045.91;4971906;28;20231;-63
2022/01/22 07:48:32;;;;;;;9.93;3.50;;;;;;;-2.14;84.62;100052.50;4979107;28;20322;-62
2022/01/22 07:50:58;;;;;;;8.03;2.57;;;;;;;-2.10;84.63;100068.88;4977201;28;20235;-62
2022/01/22 07:53:25;;;;;;;7.57;2.70;;;;;;;-2.15;85.38;100076.91;4976926;28;20360;-63
2022/01/22 07:55:52;;;;;;;12.47;2.77;;;;;;;-2.14;85.43;100082.94;4955348;28;20220;-64
2022/01/22 07:58:19;;;;;;;9.97;2.73;;;;;;;-2.12;85.82;100086.34;4976091;28;20262;-65
2022/01/22 08:00:45;;;;;;;10.27;2.77;;;;;;;-2.02;86.35;100090.19;4976978;28;20224;-63
2022/01/22 08:03:12;;;;;;;12.70;2.57;;;;;;;-2.05;87.12;100095.56;4976563;28;20238;-65
2022/01/22 08:05:39;;;;;;;9.83;2.77;;;;;;;-1.95;87.22;100098.56;4955859;28;20692;-65
2022/01/22 08:08:08;;;;;;;13.83;3.23;;;;;;;-2.06;87.84;100099.09;4979099;28;20748;-64
2022/01/22 08:10:35;;;;;;;9.20;3.23;;;;;;;-1.99;88.53;100097.00;4977233;28;20219;-65
2022/01/22 08:13:03;;;;;;;16.70;3.10;;;;;;;-1.87;88.36;100100.78;4977330;28;20234;-64
2022/01/22 08:15:30;;;;;;;14.27;2.73;;;;;;;-2.01;87.65;100109.31;4957237;28;20389;-62
2022/01/22 08:18:00;;;;;;;12.47;3.20;;;;;;;-1.92;88.72;100108.81;4974106;28;20254;-63
2022/01/22 08:20:26;;;;;;;8.63;2.97;;;;;;;-1.80;88.19;100123.91;4964460;28;20702;-63
2022/01/22 08:22:53;;;;;;;11.63;3.10;;;;;;;-1.77;87.95;100128.97;4976180;28;20946;-64
2022/01/22 08:25:20;;;;;;;10.80;3.60;;;;;;;-1.85;88.12;100131.13;4976368;28;20337;-65
2022/01/22 08:30:35;;;;;;;11.80;3.30;;;;;;;-1.67;88.45;100149.38;4976786;28;20321;-64
2022/01/22 08:35:54;;;;;;;9.57;3.10;;;;;;;-1.60;88.30;100161.22;4975176;28;20223;-62
2022/01/22 08:38:24;;;;;;;12.33;3.77;;;;;;;-1.47;88.48;100167.53;4961377;28;22076;-62
2022/01/22 08:40:51;;;;;;;10.90;3.50;;;;;;;-1.39;87.88;100170.59;4978364;28;20589;-64
2022/01/22 08:43:18;;;;;;;13.67;3.20;;;;;;;-1.39;87.63;100181.03;4955663;28;20411;-64
2022/01/22 08:45:49;;;;;;;11.40;3.20;;;;;;;-1.38;87.39;100187.97;4977864;28;20347;-64
2022/01/22 08:48:20;;;;;;;9.10;3.57;;;;;;;-1.30;87.83;100190.19;4959172;28;20228;-64
2022/01/22 08:50:47;;;;;;;15.20;3.93;;;;;;;-1.16;87.41;100197.34;4977649;28;20415;-65
2022/01/22 08:53:34;;;;;;;11.33;3.80;;;;;;;-1.17;86.89;100185.19;4976466;28;20309;-66
2022/01/22 08:56:02;;;;;;;15.57;4.10;;;;;;;-1.02;87.01;100189.66;4977230;28;20227;-65
2022/01/22 08:58:28;;;;;;;11.33;3.80;;;;;;;-0.92;86.67;100190.03;4957400;28;20310;-63
2022/01/22 09:00:55;;;;;;;12.20;4.40;;;;;;;-0.57;85.54;100196.06;4974601;28;20342;-64
2022/01/22 09:03:23;;;;;;;11.63;3.33;;;;;;;0.57;81.80;100208.19;4955940;28;20223;-63
2022/01/22 09:05:50;;;;;;;12.60;3.80;;;;;;;0.68;78.67;100213.69;4976920;28;20215;-64
2022/01/22 09:08:17;;;;;;;14.67;3.60;;;;;;;0.62;78.56;100216.63;4955311;28;20314;-67
2022/01/22 09:10:43;;;;;;;12.27;3.20;;;;;;;0.58;78.32;100228.22;4975175;28;20342;-65
2022/01/22 09:13:10;;;;;;;13.73;3.40;;;;;;;0.40;78.58;100238.78;4978469;28;20227;-65
2022/01/22 09:15:38;;;;;;;10.83;3.70;;;;;;;0.11;79.76;100239.53;4961759;28;20222;-65
2022/01/22 09:18:07;;;;;;;8.70;3.40;;;;;;;0.84;80.72;100239.81;4979607;28;20229;-65
2022/01/22 09:23:08;;;;;;;8.37;3.40;;;;;;;1.95;70.34;100244.59;4956613;28;20306;-65
2022/01/22 09:25:34;;;;;;;9.73;3.67;;;;;;;1.56;71.98;100247.88;4975471;28;20971;-65
2022/01/22 09:28:01;;;;;;;11.13;3.83;;;;;;;2.96;68.91;100253.91;4942600;28;20640;-64
2022/01/22 09:30:28;;;;;;;7.90;3.40;;;;;;;3.29;64.31;100260.50;4959522;28;20302;-65
2022/01/22 09:32:55;;;;;;;8.10;3.00;;;;;;;2.42;66.70;100263.56;4974900;28;20308;-65
2022/01/22 09:35:21;;;;;;;11.77;4.40;;;;;;;2.09;67.26;100262.13;4975854;28;20765;-67
2022/01/22 09:37:48;;;;;;;8.43;2.80;;;;;;;1.22;68.43;100255.97;4977880;28;20226;-66
2022/01/22 09:40:16;;;;;;;4.80;2.03;;;;;;;0.71;68.27;100247.53;4976631;28;20229;-64
2022/01/22 09:42:42;;;;;;;6.20;2.10;;;;;;;0.16;69.63;100253.19;4977780;28;20313;-65
2022/01/22 09:45:09;;;;;;;5.43;1.97;;;;;;;-0.21;70.44;100265.66;4957444;28;20230;-65
2022/01/22 09:47:36;;;;;;;4.83;1.87;;;;;;;-0.57;70.63;100261.38;4954182;28;20243;-65
2022/01/22 09:50:06;;;;;;;6.97;2.07;;;;;;;-0.18;69.83;100270.72;4937001;28;20642;-64
2022/01/22 09:52:33;;;;;;;3.63;1.93;;;;;;;-0.25;68.75;100285.03;4976651;28;21776;-64
2022/01/22 09:55:00;;;;;;;5.03;1.93;;;;;;;-0.36;69.04;100280.34;4956856;28;20358;-64
2022/01/22 09:57:27;;;;;;;3.83;1.87;;;;;;;-0.52;69.50;100288.13;4959061;28;20238;-65
2022/01/22 09:59:54;;;;;;;3.90;1.80;;;;;;;-0.30;69.18;100292.28;4977076;28;20250;-65
2022/01/22 10:02:21;;;;;;;4.37;2.03;;;;;;;-0.12;68.35;100296.53;4976196;28;20250;-64
2022/01/22 10:04:49;;;;;;;6.07;2.30;;;;;;;-0.09;68.61;100306.00;4952051;28;20235;-65
2022/01/22 10:07:23;;;;;;;5.50;1.87;;;;;;;0.05;68.00;100308.72;4975470;28;20243;-64
2022/01/22 10:10:01;;;;;;;3.90;1.90;;;;;;;0.03;67.92;100325.44;4976491;28;22476;-65
2022/01/22 10:12:29;;;;;;;7.80;2.10;;;;;;;0.03;67.65;100323.66;4969163;28;20227;-65
2022/01/22 10:15:08;;;;;;;4.23;2.00;;;;;;;0.10;67.12;100326.81;4966718;28;20768;-66
2022/01/22 10:17:43;;;;;;;3.30;1.90;;;;;;;-0.07;69.26;100320.69;4975761;28;20323;-55
2022/01/22 10:20:25;;;;;;;2.73;1.83;;;;;;;-0.17;68.56;100329.91;4974546;28;20325;-65
2022/01/22 10:22:58;;;;;;;4.23;2.07;;;;;;;-0.04;67.67;100333.59;4974819;28;20233;-66
2022/01/22 10:25:32;;;;;;;6.03;2.33;;;;;;;-0.01;66.97;100335.22;4954284;28;20330;-65
2022/01/22 10:28:06;;;;;;;4.37;1.90;;;;;;;0.31;66.33;100330.06;4972189;28;20219;-65
2022/01/22 10:30:40;;;;;;;5.33;2.07;;;;;;;0.29;65.68;100347.59;4955365;28;20250;-66
2022/01/22 10:33:32;;;;;;;6.17;2.20;;;;;;;0.29;66.46;100351.06;4975809;28;20709;-64
2022/01/22 10:36:15;;;;;;;3.27;1.77;;;;;;;0.12;65.87;100354.56;4959117;28;20243;-67
2022/01/22 10:38:53;;;;;;;3.17;1.80;;;;;;;-0.01;66.68;100366.59;4976896;28;20255;-65
2022/01/22 10:41:33;;;;;;;5.43;1.90;;;;;;;-0.25;66.97;100377.38;4973894;28;20321;-66
2022/01/22 10:44:01;;;;;;;3.47;1.97;;;;;;;-0.33;66.51;100387.41;4955589;28;20230;-71
2022/01/22 10:46:41;;;;;;;3.70;2.00;;;;;;;-0.05;66.49;100381.63;4958473;28;20323;-65
2022/01/22 10:49:18;;;;;;;5.53;1.93;;;;;;;0.32;65.69;100379.69;4958499;28;20231;-67
2022/01/22 10:52:03;;;;;;;4.63;2.00;;;;;;;0.84;64.55;100383.88;4954946;28;20298;-66
2022/01/22 10:54:32;;;;;;;4.83;2.20;;;;;;;0.38;63.46;100381.97;4976587;28;20321;-67
2022/01/22 10:57:11;;;;;;;4.27;1.90;;;;;;;0.63;62.96;100393.75;4974618;28;20242;-66
2022/01/22 10:59:51;;;;;;;4.57;2.20;;;;;;;0.70;62.11;100399.50;4976295;28;20223;-69
2022/01/22 11:02:35;;;;;;;4.93;2.10;;;;;;;0.83;62.13;100401.38;4944027;28;20762;-69
2022/01/22 11:05:05;;;;;;;6.73;2.63;;;;;;;0.84;61.99;100397.84;4960720;28;20238;-65
2022/01/22 11:07:31;;;;;;;5.73;2.27;;;;;;;0.93;61.51;100412.19;4947752;28;20306;-66
2022/01/22 11:10:05;;;;;;;5.37;2.27;;;;;;;1.29;61.15;100412.84;4976950;28;20227;-73
2022/01/22 11:12:32;;;;;;;3.67;2.17;;;;;;;1.16;60.14;100418.78;4955060;28;20232;-66
2022/01/22 11:14:58;;;;;;;4.23;1.93;;;;;;;1.00;59.98;100424.03;4975955;28;20238;-68
2022/01/22 11:17:31;;;;;;;4.23;1.80;;;;;;;1.01;59.51;100419.66;4956978;28;20215;-66
2022/01/22 11:19:58;;;;;;;4.63;1.97;;;;;;;1.08;58.99;100431.50;4977806;28;20350;-68
2022/01/22 11:22:26;;;;;;;6.80;1.93;;;;;;;0.95;58.96;100433.09;4957661;28;20223;-65
2022/01/22 11:24:54;;;;;;;4.60;1.87;;;;;;;1.07;59.13;100437.63;4977080;28;20250;-67
2022/01/22 11:27:21;;;;;;;3.90;1.70;;;;;;;0.87;59.74;100433.50;4961415;28;20689;-65
2022/01/22 11:29:54;;;;;;;6.47;2.03;;;;;;;0.74;60.17;100438.53;4939307;28;20224;-65
2022/01/22 11:32:25;;;;;;;5.47;1.80;;;;;;;0.66;60.75;100434.66;4983285;28;20227;-65
2022/01/22 11:34:56;;;;;;;4.17;2.27;;;;;;;0.73;61.22;100452.59;4983140;28;20255;-66
2022/01/22 11:37:43;;;;;;;5.53;2.40;;;;;;;0.74;60.47;100448.19;4979582;28;20682;-67
2022/01/22 11:40:21;;;;;;;6.00;2.40;;;;;;;0.84;61.11;100458.09;4961465;28;20231;-66
2022/01/22 11:43:02;;;;;;;5.90;2.40;;;;;;;0.83;60.30;100447.69;4976780;28;20227;-65
2022/01/22 11:45:41;;;;;;;6.90;1.90;;;;;;;0.92;59.94;100456.84;4978107;28;20324;-66
2022/01/22 11:48:27;;;;;;;7.27;2.50;;;;;;;0.79;60.53;100452.22;4980544;28;20722;-65
2022/01/22 11:51:15;;;;;;;4.17;2.30;;;;;;;0.69;59.86;100444.97;4981713;28;20813;-64
2022/01/22 11:53:54;;;;;;;6.50;2.47;;;;;;;0.50;60.55;100456.41;4981497;28;20223;-64
2022/01/22 11:56:26;;;;;;;6.10;2.30;;;;;;;0.39;61.28;100459.56;4942435;28;20350;-65
2022/01/22 11:58:55;;;;;;;4.17;2.00;;;;;;;0.50;61.14;100456.41;4969769;28;20224;-66
2022/01/22 12:04:14;;;;;;;4.43;1.93;;;;;;;0.70;58.98;100462.34;4980624;28;20232;-66
2022/01/22 12:07:00;;;;;;;5.57;1.87;;;;;;;0.78;58.34;100468.88;4982468;28;20622;-66
2022/01/22 12:15:41;;;;;;;3.90;2.20;;;;;;;0.76;58.86;100478.59;4983815;28;20281;-66
2022/01/22 12:18:12;;;;;;;8.17;2.63;;;;;;;0.74;59.38;100484.84;4981712;28;20277;-71
2022/01/22 12:21:30;;;;;;;5.93;2.50;;;;;;;0.90;60.15;100490.13;4952812;28;20226;-68
2022/01/22 12:23:28;;;;;;;4.80;2.10;;;;;;;0.90;58.19;100506.69;4984110;28;20225;-66
2022/01/22 12:25:56;;;;;;;5.53;2.30;;;;;;;1.08;58.08;100509.22;4983083;28;20227;-67
2022/01/22 12:28:39;;;;;;;6.37;2.20;;;;;;;0.96;58.22;100511.59;4949834;28;20260;-65
2022/01/22 12:31:18;;;;;;;6.43;2.53;;;;;;;0.91;57.84;100505.75;4974872;28;20230;-66
2022/01/22 12:33:45;;;;;;;6.77;2.57;;;;;;;1.17;58.04;100517.47;4967017;28;20251;-65
2022/01/22 12:36:18;;;;;;;8.23;2.03;;;;;;;1.10;57.04;100523.09;4972059;28;20226;-68
2022/01/22 12:38:57;;;;;;;5.30;2.10;;;;;;;1.14;57.74;100516.78;4952915;28;20261;-67
2022/01/22 12:44:15;;;;;;;10.13;2.20;;;;;;;1.11;57.24;100509.94;4976490;28;20310;-67
2022/01/22 12:46:51;;;;;;;8.73;2.23;;;;;;;0.96;56.53;100515.97;4967993;28;20226;-68
2022/01/22 12:49:18;;;;;;;17.20;2.57;;;;;;;0.75;57.57;100526.69;4976113;28;20331;-68
2022/01/22 12:51:44;;;;;;;8.83;2.50;;;;;;;0.65;57.61;100528.06;4974804;28;20310;-66
2022/01/22 12:54:11;;;;;;;8.53;2.80;;;;;;;0.52;57.92;100538.34;4975284;28;20325;-66
2022/01/22 12:57:13;;;;;;;9.17;2.23;;;;;;;0.58;56.56;100527.53;4956075;28;21211;-67
2022/01/22 13:02:40;;;;;;;5.07;1.90;;;;;;;0.58;56.08;100542.41;4958850;28;20278;-67
2022/01/22 13:05:09;;;;;;;5.03;2.27;;;;;;;0.57;55.97;100551.19;4975369;28;21078;-69
2022/01/22 13:07:46;;;;;;;7.60;2.57;;;;;;;0.58;57.14;100556.34;4966322;28;20231;-67
2022/01/22 13:10:13;;;;;;;6.50;2.20;;;;;;;0.47;56.57;100550.81;4977396;28;20285;-66
2022/01/22 13:12:45;;;;;;;9.43;2.40;;;;;;;0.73;56.87;100557.34;4974327;28;20338;-66
2022/01/22 13:15:15;;;;;;;8.77;2.43;;;;;;;0.90;57.10;100564.31;4975449;28;20703;-69
2022/01/22 13:17:50;;;;;;;13.20;2.63;;;;;;;1.01;56.61;100575.09;4977613;28;20226;-67